sensor_id;sensor_type;location;lat;lon;timestamp;temperature;humidity
45066;DHT22;30830;53.704;10.004;2023-08-06T00:02:23;15.90;99.90
45066;DHT22;30830;53.704;10.004;2023-08-06T00:04:48;15.90;99.90
45066;DHT22;30830;53.704;10.004;2023-08-06T00:07:14;15.80;99.90
45066;DHT22;30830;53.704;10.004;2023-08-06T00:09:39;15.80;99.90
45066;DHT22;30830;53.704;10.004;2023-08-06T00:12:05;15.80;99.90
45066;DHT22;30830;53.704;10.004;2023-08-06T00:14:31;15.80;99.90
45066;DHT22;30830;53.704;10.004;2023-08-06T00:16:57;15.70;99.90
45066;DHT22;30830;53.704;10.004;2023-08-06T00:19:22;15.70;99.90
45066;DHT22;30830;53.704;10.004;2023-08-06T00:21:48;15.70;99.90
45066;DHT22;30830;53.704;10.004;2023-08-06T00:24:13;15.80;99.90
45066;DHT22;30830;53.704;10.004;2023-08-06T00:26:39;15.80;99.90
45066;DHT22;30830;53.704;10.004;2023-08-06T00:29:04;15.80;99.90
45066;DHT22;30830;53.704;10.004;2023-08-06T00:31:30;15.80;99.90
45066;DHT22;30830;53.704;10.004;2023-08-06T00:33:55;15.70;99.90
45066;DHT22;30830;53.704;10.004;2023-08-06T00:36:21;15.80;99.90
45066;DHT22;30830;53.704;10.004;2023-08-06T00:38:47;15.70;99.90
45066;DHT22;30830;53.704;10.004;2023-08-06T00:41:12;15.70;99.90
45066;DHT22;30830;53.704;10.004;2023-08-06T00:43:38;15.60;99.90
45066;DHT22;30830;53.704;10.004;2023-08-06T00:46:03;15.60;99.90
45066;DHT22;30830;53.704;10.004;2023-08-06T00:48:29;15.60;99.90
45066;DHT22;30830;53.704;10.004;2023-08-06T00:50:55;15.50;99.90
45066;DHT22;30830;53.704;10.004;2023-08-06T00:53:21;15.60;99.90
45066;DHT22;30830;53.704;10.004;2023-08-06T00:55:47;15.60;99.90
45066;DHT22;30830;53.704;10.004;2023-08-06T00:58:14;15.60;99.90
45066;DHT22;30830;53.704;10.004;2023-08-06T01:00:40;15.60;99.90
45066;DHT22;30830;53.704;10.004;2023-08-06T01:03:06;15.70;99.90
45066;DHT22;30830;53.704;10.004;2023-08-06T01:05:32;15.60;99.90
45066;DHT22;30830;53.704;10.004;2023-08-06T01:11:08;15.60;99.90
45066;DHT22;30830;53.704;10.004;2023-08-06T01:13:43;15.60;99.90
45066;DHT22;30830;53.704;10.004;2023-08-06T01:16:15;15.60;99.90
45066;DHT22;30830;53.704;10.004;2023-08-06T01:18:41;15.60;99.90
45066;DHT22;30830;53.704;10.004;2023-08-06T01:21:14;15.60;99.90
45066;DHT22;30830;53.704;10.004;2023-08-06T01:23:40;15.60;99.90
45066;DHT22;30830;53.704;10.004;2023-08-06T01:26:24;15.60;99.90
45066;DHT22;30830;53.704;10.004;2023-08-06T01:29:10;15.50;99.90
45066;DHT22;30830;53.704;10.004;2023-08-06T01:31:37;15.50;99.90
45066;DHT22;30830;53.704;10.004;2023-08-06T01:34:07;15.50;99.90
45066;DHT22;30830;53.704;10.004;2023-08-06T01:36:35;15.40;99.90
45066;DHT22;30830;53.704;10.004;2023-08-06T01:39:01;15.30;99.90
45066;DHT22;30830;53.704;10.004;2023-08-06T01:41:27;15.30;99.90
45066;DHT22;30830;53.704;10.004;2023-08-06T01:43:52;15.30;99.90
45066;DHT22;30830;53.704;10.004;2023-08-06T01:46:18;15.30;99.90
45066;DHT22;30830;53.704;10.004;2023-08-06T01:48:44;15.30;99.90
45066;DHT22;30830;53.704;10.004;2023-08-06T01:51:09;15.30;99.90
45066;DHT22;30830;53.704;10.004;2023-08-06T01:53:35;15.30;99.90
45066;DHT22;30830;53.704;10.004;2023-08-06T01:56:01;15.30;99.90
45066;DHT22;30830;53.704;10.004;2023-08-06T01:58:27;15.30;99.90
45066;DHT22;30830;53.704;10.004;2023-08-06T02:00:52;15.30;99.90
45066;DHT22;30830;53.704;10.004;2023-08-06T02:03:18;15.30;99.90
45066;DHT22;30830;53.704;10.004;2023-08-06T02:05:44;15.30;99.90
45066;DHT22;30830;53.704;10.004;2023-08-06T02:08:11;15.30;99.90
45066;DHT22;30830;53.704;10.004;2023-08-06T02:10:37;15.20;99.90
45066;DHT22;30830;53.704;10.004;2023-08-06T02:13:02;15.20;99.90
45066;DHT22;30830;53.704;10.004;2023-08-06T02:15:28;15.20;99.90
45066;DHT22;30830;53.704;10.004;2023-08-06T02:17:54;15.20;99.90
45066;DHT22;30830;53.704;10.004;2023-08-06T02:20:19;15.20;99.90
45066;DHT22;30830;53.704;10.004;2023-08-06T02:22:45;15.20;99.90
45066;DHT22;30830;53.704;10.004;2023-08-06T02:25:10;15.10;99.90
45066;DHT22;30830;53.704;10.004;2023-08-06T02:27:37;15.20;99.90
45066;DHT22;30830;53.704;10.004;2023-08-06T02:30:03;15.10;99.90
45066;DHT22;30830;53.704;10.004;2023-08-06T02:32:30;15.10;99.90
45066;DHT22;30830;53.704;10.004;2023-08-06T02:34:57;15.10;99.90
45066;DHT22;30830;53.704;10.004;2023-08-06T02:37:22;15.10;99.90
45066;DHT22;30830;53.704;10.004;2023-08-06T02:39:48;15.10;99.90
45066;DHT22;30830;53.704;10.004;2023-08-06T02:42:13;15.10;99.90
45066;DHT22;30830;53.704;10.004;2023-08-06T02:44:39;15.00;99.90
45066;DHT22;30830;53.704;10.004;2023-08-06T02:47:05;15.00;99.90
45066;DHT22;30830;53.704;10.004;2023-08-06T02:49:30;15.00;99.90
45066;DHT22;30830;53.704;10.004;2023-08-06T02:51:56;14.90;99.90
45066;DHT22;30830;53.704;10.004;2023-08-06T02:54:22;14.90;99.90
45066;DHT22;30830;53.704;10.004;2023-08-06T02:56:47;14.90;99.90
45066;DHT22;30830;53.704;10.004;2023-08-06T02:59:13;14.90;99.90
45066;DHT22;30830;53.704;10.004;2023-08-06T03:01:39;14.90;99.90
45066;DHT22;30830;53.704;10.004;2023-08-06T03:04:05;14.90;99.90
45066;DHT22;30830;53.704;10.004;2023-08-06T03:06:30;15.00;99.90
45066;DHT22;30830;53.704;10.004;2023-08-06T03:08:56;14.90;99.90
45066;DHT22;30830;53.704;10.004;2023-08-06T03:11:22;14.90;99.90
45066;DHT22;30830;53.704;10.004;2023-08-06T03:13:48;14.90;99.90
45066;DHT22;30830;53.704;10.004;2023-08-06T03:16:13;14.90;99.90
45066;DHT22;30830;53.704;10.004;2023-08-06T03:18:39;14.90;99.90
45066;DHT22;30830;53.704;10.004;2023-08-06T03:21:05;14.90;99.90
45066;DHT22;30830;53.704;10.004;2023-08-06T03:23:34;14.90;99.90
45066;DHT22;30830;53.704;10.004;2023-08-06T03:26:02;14.90;99.90
45066;DHT22;30830;53.704;10.004;2023-08-06T03:28:28;14.90;99.90
45066;DHT22;30830;53.704;10.004;2023-08-06T03:31:03;14.90;99.90
45066;DHT22;30830;53.704;10.004;2023-08-06T03:33:29;14.90;99.90
45066;DHT22;30830;53.704;10.004;2023-08-06T03:35:55;14.90;99.90
45066;DHT22;30830;53.704;10.004;2023-08-06T03:38:21;14.80;99.90
45066;DHT22;30830;53.704;10.004;2023-08-06T03:40:46;14.80;99.90
45066;DHT22;30830;53.704;10.004;2023-08-06T03:43:12;14.80;99.90
45066;DHT22;30830;53.704;10.004;2023-08-06T03:45:38;14.80;99.90
45066;DHT22;30830;53.704;10.004;2023-08-06T03:48:04;14.80;99.90
45066;DHT22;30830;53.704;10.004;2023-08-06T03:50:29;14.80;99.90
45066;DHT22;30830;53.704;10.004;2023-08-06T03:52:55;14.80;99.90
45066;DHT22;30830;53.704;10.004;2023-08-06T03:55:21;14.80;99.90
45066;DHT22;30830;53.704;10.004;2023-08-06T03:57:47;14.70;99.90
45066;DHT22;30830;53.704;10.004;2023-08-06T04:00:13;14.70;99.90
45066;DHT22;30830;53.704;10.004;2023-08-06T04:02:38;14.70;99.90
45066;DHT22;30830;53.704;10.004;2023-08-06T04:05:04;14.70;99.90
45066;DHT22;30830;53.704;10.004;2023-08-06T04:07:30;14.70;99.90
45066;DHT22;30830;53.704;10.004;2023-08-06T04:09:58;14.70;99.90
45066;DHT22;30830;53.704;10.004;2023-08-06T04:12:24;14.70;99.90
45066;DHT22;30830;53.704;10.004;2023-08-06T04:14:50;14.70;99.90
45066;DHT22;30830;53.704;10.004;2023-08-06T04:17:17;14.70;99.90
45066;DHT22;30830;53.704;10.004;2023-08-06T04:19:52;14.70;99.90
45066;DHT22;30830;53.704;10.004;2023-08-06T04:22:18;14.70;99.90
45066;DHT22;30830;53.704;10.004;2023-08-06T04:24:44;14.70;99.90
45066;DHT22;30830;53.704;10.004;2023-08-06T04:27:10;14.70;99.90
45066;DHT22;30830;53.704;10.004;2023-08-06T04:29:36;14.70;99.90
45066;DHT22;30830;53.704;10.004;2023-08-06T04:32:03;14.70;99.90
45066;DHT22;30830;53.704;10.004;2023-08-06T04:34:29;14.70;99.90
45066;DHT22;30830;53.704;10.004;2023-08-06T04:36:55;14.70;99.90
45066;DHT22;30830;53.704;10.004;2023-08-06T04:39:20;14.70;99.90
45066;DHT22;30830;53.704;10.004;2023-08-06T04:41:46;14.70;99.90
45066;DHT22;30830;53.704;10.004;2023-08-06T04:44:11;14.70;99.90
45066;DHT22;30830;53.704;10.004;2023-08-06T04:46:37;14.70;99.90
45066;DHT22;30830;53.704;10.004;2023-08-06T04:49:02;14.70;99.90
45066;DHT22;30830;53.704;10.004;2023-08-06T04:51:28;14.70;99.90
45066;DHT22;30830;53.704;10.004;2023-08-06T04:53:54;14.70;99.90
45066;DHT22;30830;53.704;10.004;2023-08-06T04:56:19;14.60;99.90
45066;DHT22;30830;53.704;10.004;2023-08-06T04:58:45;14.70;99.90
45066;DHT22;30830;53.704;10.004;2023-08-06T05:01:13;14.60;99.90
45066;DHT22;30830;53.704;10.004;2023-08-06T05:03:39;14.60;99.90
45066;DHT22;30830;53.704;10.004;2023-08-06T05:06:04;14.60;99.90
45066;DHT22;30830;53.704;10.004;2023-08-06T05:08:30;14.60;99.90
45066;DHT22;30830;53.704;10.004;2023-08-06T05:10:56;14.60;99.90
45066;DHT22;30830;53.704;10.004;2023-08-06T05:13:21;14.60;99.90
45066;DHT22;30830;53.704;10.004;2023-08-06T05:15:47;14.60;99.90
45066;DHT22;30830;53.704;10.004;2023-08-06T05:18:12;14.60;99.90
45066;DHT22;30830;53.704;10.004;2023-08-06T05:20:40;14.70;99.90
45066;DHT22;30830;53.704;10.004;2023-08-06T05:23:06;14.60;99.90
45066;DHT22;30830;53.704;10.004;2023-08-06T05:25:31;14.70;99.90
45066;DHT22;30830;53.704;10.004;2023-08-06T05:27:57;14.70;99.90
45066;DHT22;30830;53.704;10.004;2023-08-06T05:30:22;14.70;99.90
45066;DHT22;30830;53.704;10.004;2023-08-06T05:32:48;14.70;99.90
45066;DHT22;30830;53.704;10.004;2023-08-06T05:35:14;14.70;99.90
45066;DHT22;30830;53.704;10.004;2023-08-06T05:37:39;14.70;99.90
45066;DHT22;30830;53.704;10.004;2023-08-06T05:40:05;14.70;99.90
45066;DHT22;30830;53.704;10.004;2023-08-06T05:42:31;14.70;99.90
45066;DHT22;30830;53.704;10.004;2023-08-06T05:44:56;14.70;99.90
45066;DHT22;30830;53.704;10.004;2023-08-06T05:47:22;14.80;99.90
45066;DHT22;30830;53.704;10.004;2023-08-06T05:49:47;14.80;99.90
45066;DHT22;30830;53.704;10.004;2023-08-06T05:52:13;14.80;99.90
45066;DHT22;30830;53.704;10.004;2023-08-06T05:54:39;14.80;99.90
45066;DHT22;30830;53.704;10.004;2023-08-06T05:57:06;14.80;99.90
45066;DHT22;30830;53.704;10.004;2023-08-06T05:59:31;14.90;99.90
45066;DHT22;30830;53.704;10.004;2023-08-06T06:01:57;14.80;99.90
45066;DHT22;30830;53.704;10.004;2023-08-06T06:04:23;14.90;99.90
45066;DHT22;30830;53.704;10.004;2023-08-06T06:06:48;14.90;99.90
45066;DHT22;30830;53.704;10.004;2023-08-06T06:09:14;14.90;99.90
45066;DHT22;30830;53.704;10.004;2023-08-06T06:11:39;14.90;99.90
45066;DHT22;30830;53.704;10.004;2023-08-06T06:14:05;15.00;99.90
45066;DHT22;30830;53.704;10.004;2023-08-06T06:16:30;15.00;99.90
45066;DHT22;30830;53.704;10.004;2023-08-06T06:18:56;15.00;99.90
45066;DHT22;30830;53.704;10.004;2023-08-06T06:21:23;15.00;99.90
45066;DHT22;30830;53.704;10.004;2023-08-06T06:23:49;15.10;99.90
45066;DHT22;30830;53.704;10.004;2023-08-06T06:26:19;15.00;99.90
45066;DHT22;30830;53.704;10.004;2023-08-06T06:28:45;15.10;99.90
45066;DHT22;30830;53.704;10.004;2023-08-06T06:31:11;15.10;99.90
45066;DHT22;30830;53.704;10.004;2023-08-06T06:33:36;15.10;99.90
45066;DHT22;30830;53.704;10.004;2023-08-06T06:36:02;15.10;99.90
45066;DHT22;30830;53.704;10.004;2023-08-06T06:38:33;15.10;99.90
45066;DHT22;30830;53.704;10.004;2023-08-06T06:40:59;15.10;99.90
45066;DHT22;30830;53.704;10.004;2023-08-06T06:43:25;15.10;99.90
45066;DHT22;30830;53.704;10.004;2023-08-06T06:46:00;15.20;99.90
45066;DHT22;30830;53.704;10.004;2023-08-06T06:48:32;15.20;99.90
45066;DHT22;30830;53.704;10.004;2023-08-06T06:50:59;15.20;99.90
45066;DHT22;30830;53.704;10.004;2023-08-06T06:53:25;15.20;99.90
45066;DHT22;30830;53.704;10.004;2023-08-06T06:55:53;15.20;99.90
45066;DHT22;30830;53.704;10.004;2023-08-06T06:58:19;15.20;99.90
45066;DHT22;30830;53.704;10.004;2023-08-06T07:00:46;15.20;99.90
45066;DHT22;30830;53.704;10.004;2023-08-06T07:03:11;15.20;99.90
45066;DHT22;30830;53.704;10.004;2023-08-06T07:05:37;15.20;99.90
45066;DHT22;30830;53.704;10.004;2023-08-06T07:08:02;15.20;99.90
45066;DHT22;30830;53.704;10.004;2023-08-06T07:10:28;15.20;99.90
45066;DHT22;30830;53.704;10.004;2023-08-06T07:12:54;15.20;99.90
45066;DHT22;30830;53.704;10.004;2023-08-06T07:15:20;15.10;99.90
45066;DHT22;30830;53.704;10.004;2023-08-06T07:17:45;15.10;99.90
45066;DHT22;30830;53.704;10.004;2023-08-06T07:20:11;15.10;99.90
45066;DHT22;30830;53.704;10.004;2023-08-06T07:22:37;15.10;99.90
45066;DHT22;30830;53.704;10.004;2023-08-06T07:25:02;15.10;99.90
45066;DHT22;30830;53.704;10.004;2023-08-06T07:27:28;15.10;99.90
45066;DHT22;30830;53.704;10.004;2023-08-06T07:29:54;15.10;99.90
45066;DHT22;30830;53.704;10.004;2023-08-06T07:32:19;15.10;99.90
45066;DHT22;30830;53.704;10.004;2023-08-06T07:34:45;15.10;99.90
45066;DHT22;30830;53.704;10.004;2023-08-06T07:37:11;15.20;99.90
45066;DHT22;30830;53.704;10.004;2023-08-06T07:39:36;15.20;99.90
45066;DHT22;30830;53.704;10.004;2023-08-06T07:42:04;15.30;99.90
45066;DHT22;30830;53.704;10.004;2023-08-06T07:44:32;15.30;99.90
45066;DHT22;30830;53.704;10.004;2023-08-06T07:46:57;15.40;99.90
45066;DHT22;30830;53.704;10.004;2023-08-06T07:49:23;15.40;99.90
45066;DHT22;30830;53.704;10.004;2023-08-06T07:51:49;15.40;99.90
45066;DHT22;30830;53.704;10.004;2023-08-06T07:54:14;15.50;99.90
45066;DHT22;30830;53.704;10.004;2023-08-06T07:56:40;15.50;99.90
45066;DHT22;30830;53.704;10.004;2023-08-06T07:59:05;15.50;99.90
45066;DHT22;30830;53.704;10.004;2023-08-06T08:01:31;15.60;99.90
45066;DHT22;30830;53.704;10.004;2023-08-06T08:03:56;15.60;99.90
45066;DHT22;30830;53.704;10.004;2023-08-06T08:06:22;15.60;99.90
45066;DHT22;30830;53.704;10.004;2023-08-06T08:08:48;15.60;99.90
45066;DHT22;30830;53.704;10.004;2023-08-06T08:11:14;15.70;99.90
45066;DHT22;30830;53.704;10.004;2023-08-06T08:13:41;15.70;99.90
45066;DHT22;30830;53.704;10.004;2023-08-06T08:16:07;15.80;99.90
45066;DHT22;30830;53.704;10.004;2023-08-06T08:18:32;15.80;99.90
45066;DHT22;30830;53.704;10.004;2023-08-06T08:20:58;15.90;99.90
45066;DHT22;30830;53.704;10.004;2023-08-06T08:23:24;15.80;99.90
45066;DHT22;30830;53.704;10.004;2023-08-06T08:25:49;15.80;99.90
45066;DHT22;30830;53.704;10.004;2023-08-06T08:28:15;15.90;99.90
45066;DHT22;30830;53.704;10.004;2023-08-06T08:30:41;16.00;99.90
45066;DHT22;30830;53.704;10.004;2023-08-06T08:33:07;16.00;99.90
45066;DHT22;30830;53.704;10.004;2023-08-06T08:35:33;16.00;99.90
45066;DHT22;30830;53.704;10.004;2023-08-06T08:37:59;16.10;99.90
45066;DHT22;30830;53.704;10.004;2023-08-06T08:40:31;16.10;99.90
45066;DHT22;30830;53.704;10.004;2023-08-06T08:42:58;16.10;99.90
45066;DHT22;30830;53.704;10.004;2023-08-06T08:45:26;16.10;99.90
45066;DHT22;30830;53.704;10.004;2023-08-06T08:47:54;16.20;99.90
45066;DHT22;30830;53.704;10.004;2023-08-06T08:50:21;16.30;99.90
45066;DHT22;30830;53.704;10.004;2023-08-06T08:52:46;16.40;99.90
45066;DHT22;30830;53.704;10.004;2023-08-06T08:55:14;16.40;99.90
45066;DHT22;30830;53.704;10.004;2023-08-06T08:57:40;16.30;99.90
45066;DHT22;30830;53.704;10.004;2023-08-06T09:00:06;16.40;99.90
45066;DHT22;30830;53.704;10.004;2023-08-06T09:02:33;16.50;99.90
45066;DHT22;30830;53.704;10.004;2023-08-06T09:05:00;16.50;99.90
45066;DHT22;30830;53.704;10.004;2023-08-06T09:07:34;16.40;99.90
45066;DHT22;30830;53.704;10.004;2023-08-06T09:10:02;16.50;99.90
45066;DHT22;30830;53.704;10.004;2023-08-06T09:12:31;16.50;99.90
45066;DHT22;30830;53.704;10.004;2023-08-06T09:14:57;16.50;99.90
45066;DHT22;30830;53.704;10.004;2023-08-06T09:17:23;16.50;99.90
45066;DHT22;30830;53.704;10.004;2023-08-06T09:19:49;16.50;99.90
45066;DHT22;30830;53.704;10.004;2023-08-06T09:22:15;16.60;99.90
45066;DHT22;30830;53.704;10.004;2023-08-06T09:24:41;16.60;99.90
45066;DHT22;30830;53.704;10.004;2023-08-06T09:27:14;16.60;99.90
45066;DHT22;30830;53.704;10.004;2023-08-06T09:29:46;16.60;99.90
45066;DHT22;30830;53.704;10.004;2023-08-06T09:32:12;16.70;99.90
45066;DHT22;30830;53.704;10.004;2023-08-06T09:34:41;16.70;99.90
45066;DHT22;30830;53.704;10.004;2023-08-06T09:37:08;16.60;99.90
45066;DHT22;30830;53.704;10.004;2023-08-06T09:39:39;16.50;99.90
45066;DHT22;30830;53.704;10.004;2023-08-06T09:42:05;16.50;99.90
45066;DHT22;30830;53.704;10.004;2023-08-06T09:44:34;16.50;99.90
45066;DHT22;30830;53.704;10.004;2023-08-06T09:47:02;16.60;99.90
45066;DHT22;30830;53.704;10.004;2023-08-06T09:49:50;16.60;99.90
45066;DHT22;30830;53.704;10.004;2023-08-06T09:52:18;16.60;99.90
45066;DHT22;30830;53.704;10.004;2023-08-06T09:54:44;16.50;99.90
45066;DHT22;30830;53.704;10.004;2023-08-06T09:57:11;16.50;99.90
45066;DHT22;30830;53.704;10.004;2023-08-06T09:59:38;16.50;99.90
45066;DHT22;30830;53.704;10.004;2023-08-06T10:02:12;16.50;99.90
45066;DHT22;30830;53.704;10.004;2023-08-06T10:04:38;16.50;99.90
45066;DHT22;30830;53.704;10.004;2023-08-06T10:07:04;16.50;99.90
45066;DHT22;30830;53.704;10.004;2023-08-06T10:09:30;16.50;99.90
45066;DHT22;30830;53.704;10.004;2023-08-06T10:11:58;16.60;99.90
45066;DHT22;30830;53.704;10.004;2023-08-06T10:14:33;16.50;99.90
45066;DHT22;30830;53.704;10.004;2023-08-06T10:17:00;16.50;99.90
45066;DHT22;30830;53.704;10.004;2023-08-06T10:19:27;16.60;99.90
45066;DHT22;30830;53.704;10.004;2023-08-06T10:22:14;16.50;99.90
45066;DHT22;30830;53.704;10.004;2023-08-06T10:24:53;16.50;99.90
45066;DHT22;30830;53.704;10.004;2023-08-06T10:27:21;16.50;99.90
45066;DHT22;30830;53.704;10.004;2023-08-06T10:29:47;16.50;99.90
45066;DHT22;30830;53.704;10.004;2023-08-06T10:32:13;16.50;99.90
45066;DHT22;30830;53.704;10.004;2023-08-06T10:35:09;16.40;99.90
45066;DHT22;30830;53.704;10.004;2023-08-06T10:37:52;16.40;99.90
45066;DHT22;30830;53.704;10.004;2023-08-06T10:40:20;16.40;99.90
45066;DHT22;30830;53.704;10.004;2023-08-06T10:42:46;16.40;99.90
45066;DHT22;30830;53.704;10.004;2023-08-06T10:45:13;16.40;99.90
45066;DHT22;30830;53.704;10.004;2023-08-06T10:47:39;16.40;99.90
45066;DHT22;30830;53.704;10.004;2023-08-06T10:50:16;16.40;99.90
45066;DHT22;30830;53.704;10.004;2023-08-06T10:52:46;16.50;99.90
45066;DHT22;30830;53.704;10.004;2023-08-06T10:55:15;16.50;99.90
45066;DHT22;30830;53.704;10.004;2023-08-06T10:57:47;16.50;99.90
45066;DHT22;30830;53.704;10.004;2023-08-06T11:00:13;16.60;99.90
45066;DHT22;30830;53.704;10.004;2023-08-06T11:02:39;16.60;99.90
45066;DHT22;30830;53.704;10.004;2023-08-06T11:05:09;16.50;99.90
45066;DHT22;30830;53.704;10.004;2023-08-06T11:07:35;16.60;99.90
45066;DHT22;30830;53.704;10.004;2023-08-06T11:10:09;16.60;99.90
45066;DHT22;30830;53.704;10.004;2023-08-06T11:12:38;16.60;99.90
45066;DHT22;30830;53.704;10.004;2023-08-06T11:15:04;16.60;99.90
45066;DHT22;30830;53.704;10.004;2023-08-06T11:17:33;16.70;99.90
45066;DHT22;30830;53.704;10.004;2023-08-06T11:20:00;16.70;99.90
45066;DHT22;30830;53.704;10.004;2023-08-06T11:22:26;16.70;99.90
45066;DHT22;30830;53.704;10.004;2023-08-06T11:24:53;16.70;99.90
45066;DHT22;30830;53.704;10.004;2023-08-06T11:27:19;16.70;99.90
45066;DHT22;30830;53.704;10.004;2023-08-06T11:29:44;16.70;99.90
45066;DHT22;30830;53.704;10.004;2023-08-06T11:32:11;16.60;99.90
45066;DHT22;30830;53.704;10.004;2023-08-06T11:34:38;16.70;99.90
45066;DHT22;30830;53.704;10.004;2023-08-06T11:37:04;16.70;99.90
45066;DHT22;30830;53.704;10.004;2023-08-06T11:39:32;16.70;99.90
45066;DHT22;30830;53.704;10.004;2023-08-06T11:41:58;16.70;99.90
45066;DHT22;30830;53.704;10.004;2023-08-06T11:44:26;16.60;99.90
45066;DHT22;30830;53.704;10.004;2023-08-06T11:46:55;16.60;99.90
45066;DHT22;30830;53.704;10.004;2023-08-06T11:49:45;16.60;99.90
45066;DHT22;30830;53.704;10.004;2023-08-06T11:52:18;16.70;99.90
45066;DHT22;30830;53.704;10.004;2023-08-06T11:55:02;16.60;99.90
45066;DHT22;30830;53.704;10.004;2023-08-06T11:57:32;16.70;99.90
45066;DHT22;30830;53.704;10.004;2023-08-06T12:00:08;16.80;99.90
45066;DHT22;30830;53.704;10.004;2023-08-06T12:02:34;16.80;99.90
45066;DHT22;30830;53.704;10.004;2023-08-06T12:05:31;16.90;99.90
45066;DHT22;30830;53.704;10.004;2023-08-06T12:07:59;17.00;99.90
45066;DHT22;30830;53.704;10.004;2023-08-06T12:10:27;17.00;99.90
45066;DHT22;30830;53.704;10.004;2023-08-06T12:12:53;17.00;99.90
45066;DHT22;30830;53.704;10.004;2023-08-06T12:15:19;17.00;99.90
45066;DHT22;30830;53.704;10.004;2023-08-06T12:17:45;17.00;99.90
45066;DHT22;30830;53.704;10.004;2023-08-06T12:20:11;17.00;99.90
45066;DHT22;30830;53.704;10.004;2023-08-06T12:22:37;17.10;99.90
45066;DHT22;30830;53.704;10.004;2023-08-06T12:25:07;17.20;99.90
45066;DHT22;30830;53.704;10.004;2023-08-06T12:27:41;17.30;99.90
45066;DHT22;30830;53.704;10.004;2023-08-06T12:30:08;17.40;99.90
45066;DHT22;30830;53.704;10.004;2023-08-06T12:32:34;17.40;99.90
45066;DHT22;30830;53.704;10.004;2023-08-06T12:35:00;17.40;99.90
45066;DHT22;30830;53.704;10.004;2023-08-06T12:37:27;17.50;99.90
45066;DHT22;30830;53.704;10.004;2023-08-06T12:39:52;17.50;99.90
45066;DHT22;30830;53.704;10.004;2023-08-06T12:42:18;17.50;99.90
45066;DHT22;30830;53.704;10.004;2023-08-06T12:44:44;17.60;99.90
45066;DHT22;30830;53.704;10.004;2023-08-06T12:47:10;17.60;99.90
45066;DHT22;30830;53.704;10.004;2023-08-06T12:49:36;17.70;99.90
45066;DHT22;30830;53.704;10.004;2023-08-06T12:52:02;17.80;99.90
45066;DHT22;30830;53.704;10.004;2023-08-06T12:54:30;17.80;99.90
45066;DHT22;30830;53.704;10.004;2023-08-06T12:57:01;17.80;99.90
45066;DHT22;30830;53.704;10.004;2023-08-06T12:59:27;17.80;99.90
45066;DHT22;30830;53.704;10.004;2023-08-06T13:01:52;17.80;99.90
45066;DHT22;30830;53.704;10.004;2023-08-06T13:04:18;17.80;99.90
45066;DHT22;30830;53.704;10.004;2023-08-06T13:06:43;17.90;99.90
45066;DHT22;30830;53.704;10.004;2023-08-06T13:09:09;17.90;99.90
45066;DHT22;30830;53.704;10.004;2023-08-06T13:11:36;18.00;99.90
45066;DHT22;30830;53.704;10.004;2023-08-06T13:14:10;18.10;99.90
45066;DHT22;30830;53.704;10.004;2023-08-06T13:16:38;18.10;99.90
45066;DHT22;30830;53.704;10.004;2023-08-06T13:19:04;18.10;99.90
45066;DHT22;30830;53.704;10.004;2023-08-06T13:21:35;18.10;99.90
45066;DHT22;30830;53.704;10.004;2023-08-06T13:24:02;18.00;99.90
45066;DHT22;30830;53.704;10.004;2023-08-06T13:26:29;18.00;99.90
45066;DHT22;30830;53.704;10.004;2023-08-06T13:28:59;18.10;99.90
45066;DHT22;30830;53.704;10.004;2023-08-06T13:31:25;18.20;99.90
45066;DHT22;30830;53.704;10.004;2023-08-06T13:33:55;18.20;99.90
45066;DHT22;30830;53.704;10.004;2023-08-06T13:36:29;18.30;99.90
45066;DHT22;30830;53.704;10.004;2023-08-06T13:38:57;18.30;99.90
45066;DHT22;30830;53.704;10.004;2023-08-06T13:41:26;18.30;99.90
45066;DHT22;30830;53.704;10.004;2023-08-06T13:43:52;18.20;99.90
45066;DHT22;30830;53.704;10.004;2023-08-06T13:46:18;18.20;99.90
45066;DHT22;30830;53.704;10.004;2023-08-06T13:48:46;18.20;99.90
45066;DHT22;30830;53.704;10.004;2023-08-06T13:51:12;18.20;99.90
45066;DHT22;30830;53.704;10.004;2023-08-06T13:53:42;18.10;99.90
45066;DHT22;30830;53.704;10.004;2023-08-06T13:56:09;18.00;99.90
45066;DHT22;30830;53.704;10.004;2023-08-06T13:58:40;17.90;99.90
45066;DHT22;30830;53.704;10.004;2023-08-06T14:01:06;17.80;99.90
45066;DHT22;30830;53.704;10.004;2023-08-06T14:03:32;17.70;99.90
45066;DHT22;30830;53.704;10.004;2023-08-06T14:05:58;17.70;99.90
45066;DHT22;30830;53.704;10.004;2023-08-06T14:08:26;17.60;99.90
45066;DHT22;30830;53.704;10.004;2023-08-06T14:10:52;17.50;99.90
45066;DHT22;30830;53.704;10.004;2023-08-06T14:13:18;17.50;99.90
45066;DHT22;30830;53.704;10.004;2023-08-06T14:15:47;17.50;99.90
45066;DHT22;30830;53.704;10.004;2023-08-06T14:18:13;17.40;99.90
45066;DHT22;30830;53.704;10.004;2023-08-06T14:20:40;17.30;99.90
45066;DHT22;30830;53.704;10.004;2023-08-06T14:23:06;17.20;99.90
45066;DHT22;30830;53.704;10.004;2023-08-06T14:25:31;17.20;99.90
45066;DHT22;30830;53.704;10.004;2023-08-06T14:27:57;17.20;99.90
45066;DHT22;30830;53.704;10.004;2023-08-06T14:30:23;17.20;99.90
45066;DHT22;30830;53.704;10.004;2023-08-06T14:32:48;17.00;99.90
45066;DHT22;30830;53.704;10.004;2023-08-06T14:35:14;16.90;99.90
45066;DHT22;30830;53.704;10.004;2023-08-06T14:37:40;17.00;99.90
45066;DHT22;30830;53.704;10.004;2023-08-06T14:40:07;16.90;99.90
45066;DHT22;30830;53.704;10.004;2023-08-06T14:42:33;17.00;99.90
45066;DHT22;30830;53.704;10.004;2023-08-06T14:44:58;17.00;99.90
45066;DHT22;30830;53.704;10.004;2023-08-06T14:47:32;17.00;99.90
45066;DHT22;30830;53.704;10.004;2023-08-06T14:49:57;16.90;99.90
45066;DHT22;30830;53.704;10.004;2023-08-06T14:52:23;16.90;99.90
45066;DHT22;30830;53.704;10.004;2023-08-06T14:54:48;16.90;99.90
45066;DHT22;30830;53.704;10.004;2023-08-06T14:57:17;16.90;99.90
45066;DHT22;30830;53.704;10.004;2023-08-06T14:59:43;16.90;99.90
45066;DHT22;30830;53.704;10.004;2023-08-06T15:02:09;16.90;99.90
45066;DHT22;30830;53.704;10.004;2023-08-06T15:04:34;17.00;99.90
45066;DHT22;30830;53.704;10.004;2023-08-06T15:07:00;17.00;99.90
45066;DHT22;30830;53.704;10.004;2023-08-06T15:09:25;17.10;99.90
45066;DHT22;30830;53.704;10.004;2023-08-06T15:11:51;17.20;99.90
45066;DHT22;30830;53.704;10.004;2023-08-06T15:14:17;17.20;99.90
45066;DHT22;30830;53.704;10.004;2023-08-06T15:16:46;17.20;99.90
45066;DHT22;30830;53.704;10.004;2023-08-06T15:19:12;17.30;99.90